Time;durP1;ratioP1;P1;durP2;ratioP2;P2;SDS_P1;SDS_P2;PMS_P1;PMS_P2;Temp;Humidity;BMP_temperature;BMP_pressure;BME280_temperature;BME280_humidity;BME280_pressure;Samples;Min_cycle;Max_cycle;Signal;HPM_P1;HPM_P2
2023/01/05 00:01:46;;;;;;;2.15;1.40;;;;;;;7.53;71.67;96849.06;1784444;78;25654;-74
2023/01/05 00:04:13;;;;;;;1.20;1.10;;;;;;;7.52;71.81;96848.75;1784520;78;25642;-74
2023/01/05 00:06:41;;;;;;;1.98;1.30;;;;;;;7.49;72.16;96843.78;1784467;78;27283;-74
2023/01/05 00:09:11;;;;;;;2.77;1.67;;;;;;;7.47;72.13;96829.77;1784265;78;25693;-73
2023/01/05 00:22:53;;;;;;;1.22;1.10;;;;;;;7.42;72.85;96820.14;1807007;77;25997;-74
2023/01/05 00:25:24;;;;;;;2.30;1.52;;;;;;;7.43;72.92;96800.83;1797972;77;25765;-73
2023/01/05 00:27:52;;;;;;;1.25;1.10;;;;;;;7.45;72.92;96782.66;1810366;78;25696;-74
2023/01/05 00:30:22;;;;;;;2.22;1.15;;;;;;;7.46;72.89;96789.17;1784462;78;25655;-73
2023/01/05 00:32:49;;;;;;;1.55;1.35;;;;;;;7.48;72.96;96797.85;1793783;78;27409;-73
2023/01/05 00:35:16;;;;;;;1.42;1.00;;;;;;;7.49;73.07;96812.91;1784373;78;25658;-73
2023/01/05 00:37:44;;;;;;;1.22;1.12;;;;;;;7.51;73.03;96813.53;1789196;77;26286;-74
2023/01/05 00:40:14;;;;;;;1.20;1.10;;;;;;;7.52;73.04;96821.07;1811148;77;25824;-73
2023/01/05 00:42:41;;;;;;;1.92;0.80;;;;;;;7.55;73.00;96831.41;1829003;77;25724;-73
2023/01/05 00:45:11;;;;;;;0.72;0.72;;;;;;;7.56;73.01;96836.58;1792471;77;27288;-73
2023/01/05 00:47:38;;;;;;;0.72;0.70;;;;;;;7.59;72.95;96830.80;1818925;77;25835;-73
2023/01/05 00:50:07;;;;;;;0.82;0.82;;;;;;;7.63;72.91;96829.02;1819281;77;25739;-74
2023/01/05 00:52:34;;;;;;;1.35;0.60;;;;;;;7.67;72.84;96831.10;1786517;78;25738;-73
2023/01/05 00:55:01;;;;;;;0.80;0.80;;;;;;;7.72;72.83;96813.03;1819622;77;25677;-73
2023/01/05 00:57:27;;;;;;;0.80;0.70;;;;;;;7.75;72.76;96809.91;1786559;77;27279;-73
2023/01/05 00:59:54;;;;;;;0.62;0.60;;;;;;;7.79;72.74;96825.41;1786542;77;25741;-73
2023/01/05 01:02:20;;;;;;;1.45;0.75;;;;;;;7.83;72.68;96819.12;1786567;78;25681;-73
2023/01/05 01:04:47;;;;;;;0.82;0.72;;;;;;;7.85;72.63;96804.93;1821827;77;25658;-73
2023/01/05 01:07:14;;;;;;;0.80;0.70;;;;;;;7.87;72.61;96784.87;1816743;77;25724;-74
2023/01/05 01:09:40;;;;;;;1.25;0.60;;;;;;;7.89;72.60;96798.94;1786315;77;28244;-73
2023/01/05 01:12:07;;;;;;;0.80;0.70;;;;;;;7.91;72.54;96804.11;1786515;78;25495;-75
2023/01/05 01:14:33;;;;;;;0.75;0.75;;;;;;;7.91;72.58;96794.70;1786762;77;25477;-73
2023/01/05 01:17:00;;;;;;;1.00;0.50;;;;;;;7.93;72.50;96799.36;1819531;77;26362;-73
2023/01/05 01:19:27;;;;;;;0.47;0.47;;;;;;;7.95;72.46;96793.27;1786518;77;25718;-73
2023/01/05 01:21:54;;;;;;;1.25;0.80;;;;;;;7.94;72.42;96773.62;1786713;77;27161;-73
2023/01/05 01:24:24;;;;;;;1.10;0.70;;;;;;;7.95;72.38;96770.42;1804841;77;25999;-73
2023/01/05 01:26:53;;;;;;;0.98;0.75;;;;;;;7.97;72.33;96771.01;1798971;77;25713;-73
2023/01/05 01:29:21;;;;;;;0.85;0.60;;;;;;;7.98;72.34;96748.47;1786586;78;26526;-75
2023/01/05 01:31:50;;;;;;;0.80;0.50;;;;;;;7.99;72.29;96743.92;1802398;77;25838;-73
2023/01/05 01:34:17;;;;;;;0.50;0.50;;;;;;;7.99;72.23;96728.63;1789335;77;27377;-74
2023/01/05 01:36:44;;;;;;;0.95;0.70;;;;;;;7.99;72.22;96728.63;1786330;77;25838;-73
2023/01/05 01:39:11;;;;;;;0.88;0.60;;;;;;;7.99;72.16;96723.25;1787069;77;25769;-73
2023/01/05 01:41:38;;;;;;;0.53;0.53;;;;;;;7.99;72.16;96723.25;1833441;77;26494;-74
2023/01/05 01:44:58;;;;;;;0.72;0.62;;;;;;;7.99;72.13;96706.30;1801139;78;25214;-72
2023/01/05 01:47:48;;;;;;;0.35;0.35;;;;;;;7.98;72.21;96705.98;1795212;78;28029;-73
2023/01/05 01:50:26;;;;;;;0.47;0.47;;;;;;;7.98;72.13;96720.25;1791987;78;25697;-73
2023/01/05 01:52:58;;;;;;;0.50;0.50;;;;;;;7.98;72.11;96679.94;1781826;78;26786;-73
2023/01/05 01:55:26;;;;;;;0.70;0.50;;;;;;;8.00;72.09;96676.52;1784264;78;25711;-73
2023/01/05 01:57:53;;;;;;;0.80;0.55;;;;;;;8.02;72.06;96688.41;1816948;77;25700;-73
2023/01/05 02:00:20;;;;;;;0.70;0.65;;;;;;;8.02;72.08;96693.27;1784275;78;27432;-72
2023/01/05 02:05:24;;;;;;;0.55;0.50;;;;;;;8.04;72.12;96693.89;1782114;79;25752;-74
2023/01/05 02:07:51;;;;;;;0.42;0.40;;;;;;;8.06;72.10;96695.84;1733035;82;34712;-73
2023/01/05 02:10:23;;;;;;;0.82;0.60;;;;;;;8.07;72.08;96690.78;1732805;82;25697;-73
2023/01/05 02:13:22;;;;;;;0.70;0.70;;;;;;;8.10;72.05;96692.20;1639035;87;28356;-73
2023/01/05 02:16:24;;;;;;;1.57;0.78;;;;;;;8.12;72.07;96676.69;1600108;87;25882;-74
2023/01/05 02:19:20;;;;;;;0.50;0.50;;;;;;;8.13;72.03;96695.81;1593674;87;25760;-72
2023/01/05 02:22:20;;;;;;;0.65;0.60;;;;;;;8.15;72.12;96708.01;1593514;87;25504;-73
2023/01/05 02:25:28;;;;;;;0.95;0.53;;;;;;;8.17;72.13;96697.88;1595871;87;25709;-73
2023/01/05 02:28:20;;;;;;;0.93;0.82;;;;;;;8.20;72.15;96687.22;1596083;87;27324;-74
2023/01/05 02:31:08;;;;;;;0.93;0.70;;;;;;;8.21;72.16;96689.66;1596284;87;25709;-73
2023/01/05 02:33:59;;;;;;;0.50;0.50;;;;;;;8.23;72.20;96669.29;1609386;87;25465;-73
2023/01/05 02:37:03;;;;;;;0.90;0.90;;;;;;;8.24;72.17;96651.60;1605512;87;25777;-74
2023/01/05 02:39:44;;;;;;;0.50;0.50;;;;;;;8.24;72.13;96652.95;1608923;87;25799;-73
2023/01/05 02:42:23;;;;;;;0.70;0.70;;;;;;;8.26;72.17;96654.91;1610127;88;27386;-72
2023/01/05 02:44:50;;;;;;;0.60;0.60;;;;;;;8.27;72.19;96640.95;1614801;88;26123;-75
2023/01/05 02:47:43;;;;;;;0.93;0.70;;;;;;;8.27;72.21;96644.45;1615349;88;25757;-74
2023/01/05 02:50:23;;;;;;;0.60;0.60;;;;;;;8.27;72.23;96640.42;1616073;88;35281;-73
2023/01/05 02:53:20;;;;;;;0.93;0.90;;;;;;;8.29;72.30;96642.38;1610414;88;25328;-73
2023/01/05 02:55:58;;;;;;;1.67;0.80;;;;;;;8.31;72.32;96655.62;1612236;87;27405;-73
2023/01/05 02:58:33;;;;;;;0.50;0.50;;;;;;;8.33;72.24;96629.89;1576254;90;26085;-73
2023/01/05 03:01:08;;;;;;;0.57;0.50;;;;;;;8.33;72.21;96632.06;1506827;94;25917;-74
2023/01/05 03:03:42;;;;;;;1.82;0.50;;;;;;;8.36;72.18;96627.57;1494218;95;25945;-74
2023/01/05 03:06:20;;;;;;;0.30;0.30;;;;;;;8.38;72.08;96620.64;1498691;94;26522;-73
2023/01/05 03:08:57;;;;;;;0.53;0.30;;;;;;;8.40;72.05;96620.73;1517925;92;27524;-73
2023/01/05 03:14:31;;;;;;;1.65;0.40;;;;;;;8.45;71.91;96637.58;1515207;92;25813;-73
2023/01/05 03:17:00;;;;;;;0.80;0.35;;;;;;;8.47;71.84;96619.33;1515228;92;26724;-71
2023/01/05 03:19:38;;;;;;;0.35;0.30;;;;;;;8.49;71.75;96628.02;1515263;92;26116;-73
2023/01/05 03:37:05;;;;;;;0.20;0.20;;;;;;;8.59;71.28;96602.28;1510009;92;27479;-74
2023/01/05 03:39:35;;;;;;;0.30;0.20;;;;;;;8.61;71.18;96591.30;1520900;92;25984;-74
2023/01/05 03:42:02;;;;;;;0.37;0.23;;;;;;;8.61;71.08;96590.78;1528203;91;25825;-74
2023/01/05 03:44:28;;;;;;;0.30;0.30;;;;;;;8.62;71.01;96609.09;1546930;90;25818;-73
2023/01/05 03:46:56;;;;;;;0.20;0.20;;;;;;;8.61;70.95;96599.38;1547349;90;25853;-73
2023/01/05 03:49:22;;;;;;;0.20;0.20;;;;;;;8.61;70.89;96596.68;1546842;90;27431;-74
2023/01/05 03:51:49;;;;;;;2.72;0.47;;;;;;;8.61;70.88;96598.85;1547296;90;25807;-73
2023/01/05 03:54:16;;;;;;;0.20;0.20;;;;;;;8.62;70.83;96594.30;1560821;89;25939;-72
2023/01/05 03:56:42;;;;;;;0.30;0.20;;;;;;;8.61;70.79;96592.13;1609019;87;26418;-75
2023/01/05 03:59:09;;;;;;;0.72;0.30;;;;;;;8.61;70.76;96575.98;1638829;85;25421;-73
2023/01/05 04:01:35;;;;;;;0.55;0.47;;;;;;;8.61;70.71;96588.61;1648317;85;27539;-73
2023/01/05 04:04:03;;;;;;;0.35;0.30;;;;;;;8.60;70.71;96578.37;1648266;85;25820;-73
2023/01/05 04:06:30;;;;;;;0.30;0.30;;;;;;;8.61;70.69;96581.89;1648223;85;25860;-73
2023/01/05 04:08:56;;;;;;;0.20;0.10;;;;;;;8.60;70.68;96580.23;1648113;85;25494;-73
2023/01/05 04:11:24;;;;;;;0.80;0.45;;;;;;;8.61;70.62;96564.40;1648351;85;25788;-73
2023/01/05 04:13:50;;;;;;;0.30;0.30;;;;;;;8.62;70.59;96566.05;1648253;85;28390;-73
2023/01/05 04:16:17;;;;;;;0.20;0.20;;;;;;;8.63;70.54;96562.32;1648101;85;25804;-73
2023/01/05 04:18:44;;;;;;;0.42;0.20;;;;;;;8.64;70.52;96564.80;1629833;85;25777;-72
2023/01/05 04:21:12;;;;;;;0.30;0.30;;;;;;;8.66;70.47;96565.92;1648193;85;25824;-73
2023/01/05 04:23:38;;;;;;;1.10;0.42;;;;;;;8.65;70.42;96556.20;1629666;85;25504;-73
2023/01/05 04:26:06;;;;;;;2.45;1.10;;;;;;;8.68;70.41;96569.75;1648085;85;28249;-73
2023/01/05 04:28:33;;;;;;;0.40;0.40;;;;;;;8.69;70.35;96552.05;1648288;85;26170;-72
2023/01/05 04:30:59;;;;;;;0.50;0.40;;;;;;;8.69;70.31;96546.66;1698773;80;25742;-73
2023/01/05 04:33:26;;;;;;;0.50;0.50;;;;;;;8.69;70.27;96563.33;1745333;80;25721;-74
2023/01/05 04:35:53;;;;;;;0.50;0.50;;;;;;;8.69;70.23;96555.25;1758330;78;25774;-74
2023/01/05 04:38:20;;;;;;;0.95;0.40;;;;;;;8.70;70.20;96550.97;1761333;80;27391;-73
2023/01/05 04:40:51;;;;;;;1.27;0.50;;;;;;;8.70;70.18;96538.86;1761441;78;25840;-73
2023/01/05 04:43:19;;;;;;;1.00;0.60;;;;;;;8.68;70.10;96547.70;1790590;77;25723;-75
2023/01/05 04:45:48;;;;;;;1.15;0.50;;;;;;;8.69;70.09;96543.14;1796490;78;25729;-75
2023/01/05 04:48:15;;;;;;;0.37;0.30;;;;;;;8.69;70.04;96549.35;1767639;79;25728;-72
2023/01/05 04:50:42;;;;;;;1.52;0.45;;;;;;;8.69;69.99;96549.35;1801247;79;28253;-73
2023/01/05 04:53:09;;;;;;;0.72;0.50;;;;;;;8.70;69.99;96537.52;1801516;79;25723;-73
2023/01/05 04:55:36;;;;;;;0.75;0.50;;;;;;;8.71;69.99;96526.23;1801917;79;25293;-74
2023/01/05 04:58:03;;;;;;;0.70;0.42;;;;;;;8.72;69.93;96537.30;1801791;79;25932;-73
2023/01/05 05:00:32;;;;;;;1.55;0.72;;;;;;;8.73;69.87;96544.33;1801778;79;25770;-75
2023/01/05 05:02:59;;;;;;;0.50;0.40;;;;;;;8.71;69.84;96535.13;1801652;79;27380;-72
2023/01/05 05:05:26;;;;;;;0.53;0.30;;;;;;;8.72;69.80;96536.78;1801583;79;25782;-72
2023/01/05 05:07:52;;;;;;;2.10;0.45;;;;;;;8.69;69.75;96535.90;1801772;79;25779;-73
2023/01/05 05:10:19;;;;;;;1.85;0.70;;;;;;;8.70;69.72;96552.31;1801671;79;25984;-72
2023/01/05 05:12:45;;;;;;;0.85;0.47;;;;;;;8.71;69.72;96532.96;1801945;79;25525;-75
2023/01/05 05:15:12;;;;;;;0.40;0.40;;;;;;;8.70;69.71;96541.55;1801736;79;27345;-73
2023/01/05 05:17:39;;;;;;;1.32;0.60;;;;;;;8.69;69.73;96529.69;1801550;79;26003;-73
2023/01/05 05:20:07;;;;;;;0.47;0.45;;;;;;;8.68;69.80;96538.28;1801730;79;25712;-73
2023/01/05 05:22:34;;;;;;;3.30;1.52;;;;;;;8.67;69.92;96533.95;1792691;79;25743;-73
2023/01/05 05:25:01;;;;;;;0.75;0.37;;;;;;;8.66;69.98;96532.30;1788799;79;26201;-73
2023/01/05 05:27:27;;;;;;;2.47;0.55;;;;;;;8.62;70.22;96527.05;1801699;79;27375;-73
2023/01/05 05:29:54;;;;;;;0.50;0.42;;;;;;;8.59;70.35;96523.44;1801584;78;25485;-74
2023/01/05 05:32:21;;;;;;;0.23;0.20;;;;;;;8.54;70.44;96520.08;1801703;79;25735;-74
2023/01/05 05:34:47;;;;;;;0.60;0.40;;;;;;;8.49;70.62;96532.01;1801666;79;25795;-74
2023/01/05 05:37:14;;;;;;;0.60;0.57;;;;;;;8.43;70.83;96525.35;1801780;78;25899;-73
2023/01/05 05:39:41;;;;;;;0.40;0.40;;;;;;;8.38;70.99;96511.73;1801659;79;28323;-74
2023/01/05 05:42:07;;;;;;;0.40;0.40;;;;;;;8.33;71.12;96515.09;1801630;78;25929;-73
2023/01/05 05:44:34;;;;;;;0.40;0.40;;;;;;;8.29;71.37;96508.47;1799151;78;25731;-73
2023/01/05 05:47:00;;;;;;;0.65;0.50;;;;;;;8.24;71.51;96510.97;1799091;78;26549;-74
2023/01/05 05:49:27;;;;;;;1.70;0.90;;;;;;;8.20;71.72;96510.61;1798988;78;25958;-73
2023/01/05 05:51:54;;;;;;;0.50;0.50;;;;;;;8.18;71.92;96518.06;1783288;79;27248;-73
2023/01/05 05:54:20;;;;;;;0.62;0.30;;;;;;;8.17;71.80;96512.89;1787832;78;25722;-73
2023/01/05 05:56:47;;;;;;;2.37;1.40;;;;;;;8.15;72.01;96511.77;1765751;78;25770;-73
2023/01/05 05:59:13;;;;;;;3.47;2.00;;;;;;;8.14;72.20;96508.77;1761975;79;25715;-74
2023/01/05 06:01:40;;;;;;;7.62;3.58;;;;;;;8.12;72.37;96513.53;1762222;79;25787;-73
2023/01/05 06:04:06;;;;;;;2.35;1.67;;;;;;;8.08;72.40;96515.55;1762239;79;27199;-73
2023/01/05 06:06:33;;;;;;;10.00;3.80;;;;;;;8.06;72.58;96513.08;1792395;79;25650;-74
2023/01/05 06:09:00;;;;;;;2.52;1.40;;;;;;;8.06;72.77;96503.67;1762104;79;25654;-73
2023/01/05 06:11:26;;;;;;;1.30;0.90;;;;;;;8.09;72.86;96499.18;1766388;78;26426;-72
2023/01/05 06:13:53;;;;;;;2.35;1.35;;;;;;;8.09;72.74;96500.53;1787419;79;25658;-73
2023/01/05 06:16:19;;;;;;;3.75;1.30;;;;;;;8.07;72.95;96492.41;1792479;78;27419;-74
2023/01/05 06:18:46;;;;;;;1.72;0.93;;;;;;;8.07;73.03;96494.57;1775421;79;25694;-75
2023/01/05 06:21:13;;;;;;;0.88;0.80;;;;;;;8.04;73.00;96489.63;1778432;79;25683;-74
2023/01/05 06:23:39;;;;;;;1.15;0.88;;;;;;;8.03;73.23;96500.06;1779860;78;25723;-72
2023/01/05 06:26:06;;;;;;;0.53;0.53;;;;;;;8.01;73.12;96490.05;1790565;79;25722;-73
2023/01/05 06:28:32;;;;;;;1.52;0.70;;;;;;;8.00;73.29;96491.09;1789748;78;27193;-73
2023/01/05 06:30:59;;;;;;;1.22;0.80;;;;;;;8.00;73.48;96488.40;1805121;79;25646;-74
2023/01/05 06:33:26;;;;;;;2.02;0.60;;;;;;;8.01;73.54;96481.98;1765540;79;25769;-74
2023/01/05 06:35:52;;;;;;;17.60;5.28;;;;;;;8.03;73.61;96481.25;1762123;79;25695;-73
2023/01/05 06:38:20;;;;;;;3.85;1.57;;;;;;;8.02;73.57;96482.30;1797761;78;26323;-73
2023/01/05 06:40:47;;;;;;;2.40;1.20;;;;;;;8.04;73.58;96492.31;1790550;79;28279;-73
2023/01/05 06:43:13;;;;;;;2.52;1.05;;;;;;;8.03;73.65;96487.15;1772969;78;25718;-74
2023/01/05 06:45:40;;;;;;;10.13;5.60;;;;;;;8.02;73.73;96475.58;1811570;78;25717;-73
2023/01/05 06:48:07;;;;;;;6.83;3.92;;;;;;;8.03;73.79;96485.28;1794250;78;25736;-73
2023/01/05 06:50:33;;;;;;;3.00;1.90;;;;;;;8.03;73.92;96477.22;1780871;78;25799;-74
2023/01/05 06:53:00;;;;;;;4.10;2.47;;;;;;;8.04;73.91;96474.84;1780984;78;27339;-73
2023/01/05 06:55:27;;;;;;;4.47;1.87;;;;;;;8.06;73.91;96482.17;1780867;78;25693;-73
2023/01/05 06:57:53;;;;;;;3.50;1.72;;;;;;;8.08;73.83;96475.23;1807147;78;25669;-73
2023/01/05 07:00:20;;;;;;;1.57;1.35;;;;;;;8.09;73.89;96482.27;1794755;78;25659;-73
2023/01/05 07:02:46;;;;;;;3.30;1.40;;;;;;;8.11;73.87;96473.44;1805317;78;25683;-73
2023/01/05 07:05:13;;;;;;;2.92;1.62;;;;;;;8.13;73.90;96486.97;1784505;78;27517;-73
2023/01/05 07:07:40;;;;;;;3.75;2.33;;;;;;;8.14;73.84;96475.17;1809272;78;25732;-72
2023/01/05 07:10:07;;;;;;;2.83;1.60;;;;;;;8.15;73.87;96476.00;1780869;78;25674;-75
2023/01/05 07:12:34;;;;;;;3.62;1.87;;;;;;;8.16;73.89;96475.78;1794753;78;25751;-73
2023/01/05 07:15:01;;;;;;;5.72;2.08;;;;;;;8.17;73.92;96483.33;1798585;78;25401;-74
2023/01/05 07:17:27;;;;;;;3.25;1.67;;;;;;;8.18;73.95;96481.77;1791035;78;27342;-72
2023/01/05 07:19:54;;;;;;;2.33;1.60;;;;;;;8.19;73.96;96479.38;1802492;78;25697;-73
2023/01/05 07:22:20;;;;;;;1.92;1.50;;;;;;;8.22;73.99;96491.02;1813116;78;25752;-73
2023/01/05 07:24:47;;;;;;;6.37;3.45;;;;;;;8.22;74.02;96484.30;1787646;78;26468;-73
2023/01/05 07:27:14;;;;;;;2.95;1.87;;;;;;;8.24;73.93;96492.16;1781030;78;25620;-73
2023/01/05 07:29:40;;;;;;;2.98;1.75;;;;;;;8.27;73.99;96483.66;1780754;78;28248;-73
2023/01/05 07:32:07;;;;;;;2.67;2.02;;;;;;;8.27;74.12;96486.34;1781574;78;25707;-73
2023/01/05 07:34:34;;;;;;;9.48;3.37;;;;;;;8.29;74.24;96482.40;1812219;78;25222;-73
2023/01/05 07:37:00;;;;;;;8.70;4.03;;;;;;;8.33;74.06;96477.45;1780838;78;26476;-72
2023/01/05 07:39:27;;;;;;;6.15;3.52;;;;;;;8.38;74.08;96471.39;1791692;78;25390;-73
2023/01/05 07:41:53;;;;;;;4.55;2.37;;;;;;;8.40;74.10;96473.34;1802392;78;27557;-73
2023/01/05 07:44:20;;;;;;;5.12;2.58;;;;;;;8.42;74.16;96468.05;1813146;78;25536;-74
2023/01/05 07:46:46;;;;;;;4.83;3.08;;;;;;;8.44;74.09;96477.25;1780637;78;25754;-74
2023/01/05 07:49:14;;;;;;;9.83;5.05;;;;;;;8.46;74.14;96479.17;1779280;77;25676;-73
2023/01/05 07:51:40;;;;;;;6.90;3.67;;;;;;;8.46;74.11;96479.17;1811373;78;25222;-73
2023/01/05 07:54:07;;;;;;;4.40;2.22;;;;;;;8.45;74.12;96470.28;1813929;78;27413;-73
2023/01/05 07:56:34;;;;;;;5.72;2.85;;;;;;;8.45;74.11;96483.73;1832609;77;25666;-72
2023/01/05 07:59:00;;;;;;;5.62;2.62;;;;;;;8.46;74.05;96469.76;1813582;78;25927;-73
2023/01/05 08:01:27;;;;;;;9.58;4.65;;;;;;;8.48;73.90;96462.30;1784034;78;26468;-73
2023/01/05 08:03:53;;;;;;;14.55;6.78;;;;;;;8.52;73.91;96467.55;1786062;78;25700;-73
2023/01/05 08:06:20;;;;;;;15.38;8.65;;;;;;;8.58;73.89;96474.72;1784260;77;27345;-73
2023/01/05 08:08:47;;;;;;;15.68;9.43;;;;;;;8.62;73.76;96468.69;1805614;78;25787;-73
2023/01/05 08:11:16;;;;;;;7.60;3.12;;;;;;;8.66;73.63;96478.48;1819805;78;25733;-73
2023/01/05 08:13:59;;;;;;;6.10;2.72;;;;;;;8.68;73.49;96491.20;1833010;78;26513;-72
2023/01/05 08:16:29;;;;;;;5.78;2.58;;;;;;;8.71;73.38;96500.16;1791856;77;25700;-74
2023/01/05 08:18:56;;;;;;;4.15;2.08;;;;;;;8.74;73.35;96501.58;1752479;80;27222;-74
2023/01/05 08:21:22;;;;;;;4.45;1.50;;;;;;;8.74;73.40;96509.13;1757178;81;25727;-73
2023/01/05 08:23:49;;;;;;;4.67;1.72;;;;;;;8.71;73.26;96539.16;1757187;81;25747;-73
2023/01/05 08:26:20;;;;;;;5.00;1.70;;;;;;;8.65;73.32;96550.83;1735677;82;25756;-75
2023/01/05 08:28:47;;;;;;;3.30;1.47;;;;;;;8.55;73.24;96565.29;1735667;81;25673;-74
2023/01/05 08:31:23;;;;;;;5.87;1.90;;;;;;;8.43;73.70;96597.97;1735856;82;27429;-74
2023/01/05 08:33:50;;;;;;;3.95;1.60;;;;;;;8.26;74.06;96585.00;1757037;81;25728;-73
2023/01/05 08:36:19;;;;;;;5.87;1.75;;;;;;;8.09;74.30;96583.84;1735700;81;25832;-74
2023/01/05 08:38:51;;;;;;;1.80;0.88;;;;;;;8.05;74.54;96584.00;1735633;82;25700;-73
2023/01/05 08:41:22;;;;;;;1.52;0.90;;;;;;;7.98;74.57;96592.59;1744849;81;26033;-73
2023/01/05 08:43:54;;;;;;;3.12;0.80;;;;;;;7.78;74.37;96597.25;1765882;80;27363;-73
2023/01/05 08:46:22;;;;;;;;;;;;;;;7.43;74.40;96601.61;1738679;81;25315;-74
2023/01/05 08:48:50;;;;;;;1.90;0.80;;;;;;;7.21;74.72;96617.67;1753626;81;25750;-74
2023/01/05 08:51:18;;;;;;;2.37;1.40;;;;;;;7.03;74.80;96637.60;1759765;81;25836;-74
2023/01/05 08:53:44;;;;;;;2.67;1.10;;;;;;;6.92;75.23;96644.94;1746780;81;26020;-74
2023/01/05 08:56:11;;;;;;;2.37;1.42;;;;;;;6.90;75.39;96666.60;1745839;81;27409;-74
2023/01/05 08:58:39;;;;;;;2.35;1.80;;;;;;;6.88;75.39;96662.78;1743877;81;25739;-75
2023/01/05 09:01:11;;;;;;;1.75;1.55;;;;;;;6.88;75.54;96659.81;1748350;81;25803;-73
2023/01/05 09:03:38;;;;;;;2.50;1.50;;;;;;;6.82;75.39;96658.26;1735830;82;25823;-75
2023/01/05 09:06:10;;;;;;;3.22;1.85;;;;;;;6.80;75.36;96644.22;1735923;82;25755;-74
2023/01/05 09:08:38;;;;;;;5.30;2.90;;;;;;;6.77;75.36;96639.26;1736001;82;28029;-74
2023/01/05 09:11:14;;;;;;;8.43;3.33;;;;;;;6.74;75.19;96624.94;1735559;82;26000;-75
2023/01/05 09:13:43;;;;;;;4.50;2.00;;;;;;;6.69;75.27;96640.81;1757114;81;25762;-73
2023/01/05 09:16:13;;;;;;;2.10;0.90;;;;;;;6.66;75.39;96643.89;1765720;78;26546;-74
2023/01/05 09:18:41;;;;;;;2.00;0.70;;;;;;;6.63;75.42;96650.20;1781791;78;25697;-74
2023/01/05 09:21:08;;;;;;;1.37;0.90;;;;;;;6.62;75.46;96646.70;1807708;78;27367;-74
2023/01/05 09:23:36;;;;;;;1.60;1.00;;;;;;;6.64;75.64;96658.02;1792506;78;25729;-73
2023/01/05 09:26:09;;;;;;;2.92;0.95;;;;;;;6.66;75.59;96651.95;1814279;78;25774;-73
2023/01/05 09:28:36;;;;;;;2.22;1.20;;;;;;;6.68;75.72;96655.25;1775061;78;25734;-73
2023/01/05 09:31:17;;;;;;;1.00;0.90;;;;;;;6.63;75.70;96641.65;1774817;77;26777;-74
2023/01/05 09:33:44;;;;;;;2.60;0.98;;;;;;;6.64;75.93;96634.43;1775082;78;28431;-73
2023/01/05 09:36:12;;;;;;;0.90;0.72;;;;;;;6.65;76.03;96636.88;1774914;77;25683;-74
2023/01/05 09:38:39;;;;;;;3.62;1.00;;;;;;;6.68;76.14;96618.22;1809887;78;25771;-74
2023/01/05 09:41:22;;;;;;;5.40;1.15;;;;;;;6.70;76.11;96621.01;1792008;78;25763;-73
2023/01/05 09:44:02;;;;;;;2.40;1.17;;;;;;;6.75;76.26;96623.91;1804715;79;25741;-74
2023/01/05 09:46:39;;;;;;;2.10;1.15;;;;;;;6.80;76.45;96621.42;1804270;79;27428;-74
2023/01/05 09:49:15;;;;;;;2.02;1.05;;;;;;;6.86;76.49;96625.97;1801224;79;25658;-74
2023/01/05 09:51:42;;;;;;;1.98;1.27;;;;;;;6.92;76.61;96616.77;1778134;79;25803;-74
2023/01/05 09:54:17;;;;;;;3.92;1.10;;;;;;;6.95;76.54;96617.70;1763469;79;25750;-73
2023/01/05 09:56:47;;;;;;;4.58;1.72;;;;;;;7.00;76.65;96615.23;1769694;79;25820;-74
2023/01/05 09:59:36;;;;;;;3.90;1.60;;;;;;;7.03;76.60;96604.06;1763735;79;27433;-74
2023/01/05 10:02:10;;;;;;;3.70;1.82;;;;;;;7.06;76.62;96607.68;1746062;80;25853;-73
2023/01/05 10:04:37;;;;;;;2.22;1.10;;;;;;;7.13;76.57;96603.11;1654262;86;25786;-74
2023/01/05 10:07:27;;;;;;;6.45;2.15;;;;;;;7.19;76.56;96594.23;1649334;86;26780;-73
2023/01/05 10:09:57;;;;;;;5.33;2.50;;;;;;;7.24;76.46;96601.16;1648807;86;26079;-73
2023/01/05 10:15:19;;;;;;;3.52;1.77;;;;;;;7.36;76.56;96597.31;1652177;86;25793;-73
2023/01/05 10:17:46;;;;;;;4.35;2.25;;;;;;;7.39;76.51;96605.75;1649846;86;36363;-73
2023/01/05 10:20:24;;;;;;;6.20;3.15;;;;;;;7.37;76.44;96583.65;1641927;86;25752;-74
2023/01/05 10:23:23;;;;;;;4.45;2.17;;;;;;;7.40;76.41;96578.37;1581983;89;25913;-73
2023/01/05 10:26:18;;;;;;;3.60;1.90;;;;;;;7.45;76.41;96575.38;1577801;90;27629;-73
2023/01/05 10:29:05;;;;;;;6.67;3.35;;;;;;;7.55;76.53;96601.27;1578631;90;25923;-73
2023/01/05 10:32:06;;;;;;;4.40;2.30;;;;;;;7.66;76.65;96591.72;1578261;90;25832;-73
2023/01/05 10:34:49;;;;;;;5.28;2.55;;;;;;;7.70;76.31;96572.80;1578477;90;26417;-73
2023/01/05 10:37:21;;;;;;;5.58;3.25;;;;;;;7.71;76.14;96574.98;1571919;90;25816;-73
2023/01/05 10:40:23;;;;;;;6.35;2.35;;;;;;;7.75;76.21;96589.61;1574345;90;28130;-73
2023/01/05 10:43:04;;;;;;;4.95;3.17;;;;;;;7.74;76.14;96582.58;1595579;89;25948;-73
2023/01/05 10:45:31;;;;;;;4.75;1.70;;;;;;;7.77;76.17;96591.57;1599522;89;25872;-73
2023/01/05 10:47:59;;;;;;;9.95;5.03;;;;;;;7.78;76.03;96577.10;1598034;89;25725;-73
2023/01/05 10:50:45;;;;;;;5.72;3.08;;;;;;;7.79;75.95;96590.33;1631102;86;25835;-73
2023/01/05 10:53:27;;;;;;;7.30;3.17;;;;;;;7.78;76.03;96595.39;1632785;87;27565;-72
2023/01/05 10:56:04;;;;;;;4.75;2.62;;;;;;;7.76;76.03;96586.71;1633024;87;25851;-73
2023/01/05 10:58:37;;;;;;;3.25;2.02;;;;;;;7.76;76.13;96587.23;1633033;86;25843;-72
2023/01/05 11:01:20;;;;;;;6.30;3.35;;;;;;;7.73;75.97;96584.45;1652029;82;25958;-73
2023/01/05 11:03:52;;;;;;;4.40;3.12;;;;;;;7.75;76.03;96564.09;1622528;87;25823;-73
2023/01/05 11:06:23;;;;;;;3.45;1.80;;;;;;;7.77;76.09;96584.85;1570016;91;27527;-73
2023/01/05 11:08:51;;;;;;;5.35;2.80;;;;;;;7.74;75.80;96578.55;1574437;91;25577;-74
2023/01/05 11:11:24;;;;;;;5.22;3.22;;;;;;;7.75;75.85;96566.77;1574485;91;25924;-73
2023/01/05 11:13:55;;;;;;;5.20;3.08;;;;;;;7.77;75.89;96584.34;1574489;91;25795;-75
2023/01/05 11:16:33;;;;;;;5.67;2.80;;;;;;;7.75;76.08;96577.00;1561846;91;25807;-72
2023/01/05 11:19:05;;;;;;;2.55;1.70;;;;;;;7.78;76.02;96570.38;1557351;89;28323;-73
2023/01/05 11:21:44;;;;;;;3.80;1.97;;;;;;;7.79;75.92;96566.14;1585850;90;25788;-72
2023/01/05 11:24:28;;;;;;;3.42;1.95;;;;;;;7.83;75.92;96566.03;1593917;89;25831;-72
2023/01/05 11:27:01;;;;;;;4.95;2.83;;;;;;;7.88;75.77;96566.71;1606066;88;25536;-72
2023/01/05 11:29:30;;;;;;;4.05;2.47;;;;;;;7.93;75.62;96552.12;1616145;88;25886;-72
2023/01/05 11:32:03;;;;;;;5.45;2.62;;;;;;;8.00;75.55;96558.80;1616040;88;28076;-72
2023/01/05 11:34:50;;;;;;;10.35;2.70;;;;;;;8.04;75.60;96554.64;1615858;88;25724;-74
2023/01/05 11:37:28;;;;;;;4.97;2.45;;;;;;;8.08;75.55;96562.07;1616059;88;25770;-72
2023/01/05 11:40:01;;;;;;;5.47;2.83;;;;;;;8.14;75.68;96574.63;1617154;87;25845;-73
2023/01/05 11:42:32;;;;;;;5.87;3.27;;;;;;;8.18;75.43;96566.45;1660409;85;25490;-73
2023/01/05 11:45:03;;;;;;;3.02;2.08;;;;;;;8.18;75.17;96549.50;1653004;86;27487;-72
2023/01/05 11:47:47;;;;;;;5.40;2.80;;;;;;;8.19;75.02;96541.73;1579618;90;25813;-72
2023/01/05 11:50:23;;;;;;;5.92;2.85;;;;;;;8.22;74.98;96542.10;1578064;89;25818;-72
2023/01/05 11:52:53;;;;;;;2.95;1.50;;;;;;;8.24;74.84;96548.09;1578094;90;25822;-73
2023/01/05 11:55:36;;;;;;;4.47;2.25;;;;;;;8.23;74.71;96558.54;1577972;90;25769;-72
2023/01/05 11:58:23;;;;;;;4.85;2.47;;;;;;;8.27;74.66;96546.84;1578027;90;28286;-74
2023/01/05 12:01:28;;;;;;;4.95;2.92;;;;;;;8.29;74.42;96544.24;1577837;90;25922;-73
2023/01/05 12:04:06;;;;;;;9.80;5.10;;;;;;;8.34;74.25;96548.16;1560083;91;25875;-75
2023/01/05 12:06:43;;;;;;;6.00;3.90;;;;;;;8.36;74.19;96550.94;1560331;91;26478;-73
2023/01/05 12:09:36;;;;;;;6.87;3.12;;;;;;;8.39;74.21;96554.54;1556043;91;25713;-72
2023/01/05 12:12:38;;;;;;;;;;;;;;;8.45;74.20;96558.23;1554056;92;27417;-72
2023/01/05 12:15:30;;;;;;;4.83;2.65;;;;;;;8.53;73.95;96553.92;1521248;94;25823;-72
2023/01/05 12:18:28;;;;;;;3.95;2.33;;;;;;;8.55;73.91;96545.94;1557720;91;25970;-73
2023/01/05 12:21:12;;;;;;;8.48;2.87;;;;;;;8.58;73.70;96545.48;1504526;94;25873;-74
2023/01/05 12:24:18;;;;;;;6.08;3.70;;;;;;;8.61;73.57;96540.19;1505824;95;25907;-72
2023/01/05 12:27:15;;;;;;;4.87;2.60;;;;;;;8.64;73.48;96543.80;1517419;94;27443;-73
2023/01/05 12:30:02;;;;;;;10.68;3.37;;;;;;;8.64;73.32;96535.20;1482427;96;25849;-73
2023/01/05 12:33:13;;;;;;;5.22;2.87;;;;;;;8.66;73.28;96532.30;1395034;102;25932;-73
2023/01/05 12:36:03;;;;;;;5.50;2.80;;;;;;;8.70;73.14;96529.97;1418677;101;25932;-72
2023/01/05 12:38:53;;;;;;;8.28;5.08;;;;;;;8.74;72.96;96532.53;1418801;101;25503;-72
2023/01/05 12:41:30;;;;;;;5.80;2.72;;;;;;;8.80;72.90;96522.24;1392317;100;28756;-73